Time;durP1;ratioP1;P1;durP2;ratioP2;P2;SDS_P1;SDS_P2;PMS_P1;PMS_P2;Temp;Humidity;BMP_temperature;BMP_pressure;BME280_temperature;BME280_humidity;BME280_pressure;Samples;Min_cycle;Max_cycle;Signal;HPM_P1;HPM_P2
2023/01/20 00:01:42;;;;;;;15.30;12.00;;;;;;;-3.01;100.00;95514.63;5063342;28;20413;-74
2023/01/20 00:04:08;;;;;;;12.43;10.83;;;;;;;-2.81;100.00;95547.44;5036744;28;20480;-74
2023/01/20 00:06:35;;;;;;;11.93;10.60;;;;;;;-2.80;100.00;95543.84;5069302;28;20472;-74
2023/01/20 00:09:03;;;;;;;11.50;10.13;;;;;;;-2.83;100.00;95540.97;5073886;28;20796;-74
2023/01/20 00:11:30;;;;;;;14.47;9.87;;;;;;;-2.82;100.00;95545.88;5056408;28;20475;-74
2023/01/20 00:14:00;;;;;;;11.97;10.40;;;;;;;-2.90;100.00;95546.44;5074042;28;20511;-74
2023/01/20 00:16:27;;;;;;;14.43;11.57;;;;;;;-2.90;100.00;95545.66;5079058;28;20475;-74
2023/01/20 00:18:57;;;;;;;15.97;11.03;;;;;;;-2.88;100.00;95553.91;5054171;28;20506;-74
2023/01/20 00:21:23;;;;;;;12.40;10.97;;;;;;;-3.15;100.00;95513.59;5075965;28;20786;-74
2023/01/20 00:23:50;;;;;;;13.70;11.03;;;;;;;-3.13;100.00;95514.13;5070284;28;20982;-73
2023/01/20 00:26:19;;;;;;;21.90;13.63;;;;;;;-2.90;100.00;95548.22;5069754;28;21004;-74
2023/01/20 00:28:46;;;;;;;14.40;12.90;;;;;;;-2.90;100.00;95564.53;5085053;28;20435;-73
2023/01/20 00:31:20;;;;;;;16.13;11.40;;;;;;;-3.05;100.00;95536.88;5055984;28;20830;-73
2023/01/20 00:33:48;;;;;;;14.43;11.07;;;;;;;-3.07;100.00;95535.56;5060504;28;20431;-74
2023/01/20 00:36:16;;;;;;;14.50;10.80;;;;;;;-2.88;100.00;95566.84;5053523;28;20491;-74
2023/01/20 00:38:43;;;;;;;15.57;10.93;;;;;;;-2.88;100.00;95567.63;5066290;28;20531;-74
2023/01/20 00:41:11;;;;;;;16.07;11.80;;;;;;;-2.86;100.00;95565.53;5055662;28;20978;-74
2023/01/20 00:43:38;;;;;;;12.80;11.27;;;;;;;-2.88;100.00;95567.63;5071876;28;20530;-74
2023/01/20 00:46:05;;;;;;;14.03;10.63;;;;;;;-2.88;100.00;95567.63;5073236;28;20442;-74
2023/01/20 00:48:32;;;;;;;13.17;11.50;;;;;;;-2.84;100.00;95584.16;5072172;28;20793;-74
2023/01/20 00:51:00;;;;;;;15.87;11.97;;;;;;;-2.85;100.00;95587.00;5078214;28;20476;-74
2023/01/20 00:53:26;;;;;;;13.07;11.17;;;;;;;-2.93;100.00;95577.19;5065680;28;20448;-74
2023/01/20 00:55:53;;;;;;;12.00;10.73;;;;;;;-2.84;100.00;95575.63;5071704;28;20483;-74
2023/01/20 00:58:20;;;;;;;12.67;9.70;;;;;;;-3.12;100.00;95545.91;5071695;28;20475;-73
2023/01/20 01:00:48;;;;;;;14.17;11.00;;;;;;;-2.99;100.00;95561.66;5079246;28;20808;-73
2023/01/20 01:03:15;;;;;;;12.83;11.47;;;;;;;-2.94;100.00;95575.63;5063000;28;20448;-74
2023/01/20 01:05:43;;;;;;;10.43;8.60;;;;;;;-2.80;100.00;95599.97;5059511;28;20448;-74
2023/01/20 01:08:10;;;;;;;12.03;10.57;;;;;;;-2.92;100.00;95578.75;5071305;28;20432;-74
2023/01/20 01:10:37;;;;;;;11.40;10.07;;;;;;;-2.69;100.00;95596.31;5070986;28;20535;-74
2023/01/20 01:13:04;;;;;;;12.33;9.20;;;;;;;-2.63;100.00;95608.22;5054748;28;20475;-74
2023/01/20 01:15:31;;;;;;;9.20;8.20;;;;;;;-2.68;100.00;95579.75;5075573;28;20868;-74
2023/01/20 01:17:59;;;;;;;13.10;9.03;;;;;;;-2.71;100.00;95581.06;5071121;28;21464;-74
2023/01/20 01:20:27;;;;;;;11.60;8.57;;;;;;;-2.49;100.00;95616.22;5051264;28;20535;-74
2023/01/20 01:22:54;;;;;;;14.33;7.53;;;;;;;-2.57;100.00;95616.75;5078347;28;20797;-74
2023/01/20 01:25:21;;;;;;;10.07;8.57;;;;;;;-2.81;100.00;95577.69;5051148;28;20449;-74
2023/01/20 01:27:48;;;;;;;12.80;8.30;;;;;;;-2.57;100.00;95583.88;5079511;28;20433;-74
2023/01/20 01:30:15;;;;;;;10.30;8.50;;;;;;;-2.59;100.00;95592.94;5052791;28;20600;-74
2023/01/20 01:32:41;;;;;;;9.43;8.43;;;;;;;-2.30;100.00;95626.78;5069319;28;20527;-74
2023/01/20 01:35:08;;;;;;;11.53;10.23;;;;;;;-2.60;100.00;95584.41;5071058;28;20547;-74
2023/01/20 01:37:35;;;;;;;9.10;8.17;;;;;;;-2.68;100.00;95588.28;5070848;28;20513;-74
2023/01/20 01:40:01;;;;;;;9.60;8.53;;;;;;;-2.69;100.00;95594.50;5072227;28;20919;-74
2023/01/20 01:42:28;;;;;;;10.77;8.30;;;;;;;-2.55;100.00;95612.84;5072050;28;20417;-74
2023/01/20 01:45:10;;;;;;;10.60;9.30;;;;;;;-2.38;100.00;95626.31;5081332;28;20439;-74
2023/01/20 01:47:46;;;;;;;8.80;7.90;;;;;;;-2.23;100.00;95627.31;5051753;28;20461;-74
2023/01/20 01:50:28;;;;;;;14.07;10.53;;;;;;;-2.34;100.00;95630.94;5034399;28;20850;-74
2023/01/20 01:52:55;;;;;;;9.33;7.20;;;;;;;-2.36;100.00;95641.56;5060913;28;20481;-73
2023/01/20 01:55:28;;;;;;;11.27;7.90;;;;;;;-2.49;100.00;95618.81;5071005;28;20464;-74
2023/01/20 01:57:57;;;;;;;10.63;8.37;;;;;;;-2.50;100.00;95636.16;5070635;28;20428;-74
2023/01/20 02:00:24;;;;;;;9.00;8.00;;;;;;;-2.49;100.00;95623.97;5070466;28;20437;-74
2023/01/20 02:02:51;;;;;;;11.47;8.13;;;;;;;-2.19;100.00;95631.69;5070428;28;20450;-74
2023/01/20 02:05:19;;;;;;;11.93;8.70;;;;;;;-2.10;100.00;95647.47;5076051;28;20428;-74
2023/01/20 02:07:46;;;;;;;8.57;7.77;;;;;;;-2.18;100.00;95648.78;5067476;28;20445;-74
2023/01/20 02:10:14;;;;;;;8.40;7.13;;;;;;;-2.48;100.00;95610.78;5069756;28;20428;-74
2023/01/20 02:12:46;;;;;;;11.67;8.07;;;;;;;-2.38;100.00;95622.94;5070325;28;20443;-74
2023/01/20 02:15:13;;;;;;;10.80;9.60;;;;;;;-2.24;100.00;95647.25;5070258;28;20421;-74
2023/01/20 02:18:20;;;;;;;13.57;9.10;;;;;;;-2.22;100.00;95642.59;5083416;28;20438;-74
2023/01/20 02:20:49;;;;;;;10.30;8.33;;;;;;;-2.12;100.00;95642.56;5049794;28;20516;-74
2023/01/20 02:23:35;;;;;;;10.20;7.73;;;;;;;-2.28;100.00;95640.25;5049771;28;20449;-74
2023/01/20 02:26:27;;;;;;;10.83;8.90;;;;;;;-2.60;100.00;95605.09;5051969;28;20448;-74
2023/01/20 02:29:03;;;;;;;8.30;7.50;;;;;;;-2.35;100.00;95648.28;5062877;28;20441;-74
2023/01/20 02:32:06;;;;;;;11.33;10.23;;;;;;;-2.15;100.00;95647.47;5069860;28;20531;-74
2023/01/20 02:34:48;;;;;;;11.67;10.47;;;;;;;-2.08;100.00;95651.34;5069887;28;20432;-74
2023/01/20 02:37:23;;;;;;;12.80;9.37;;;;;;;-2.21;100.00;95628.59;5069719;28;20585;-74
2023/01/20 02:40:11;;;;;;;11.53;7.73;;;;;;;-2.11;100.00;95649.28;5071231;28;20430;-74
2023/01/20 02:42:45;;;;;;;9.47;6.73;;;;;;;-2.21;100.00;95635.59;5069687;28;20808;-74
2023/01/20 02:45:20;;;;;;;12.70;7.90;;;;;;;-2.36;100.00;95630.44;5053241;28;20428;-74
2023/01/20 02:47:52;;;;;;;12.47;8.97;;;;;;;-2.70;100.00;95605.09;5070997;28;20426;-74
2023/01/20 02:50:35;;;;;;;16.80;9.83;;;;;;;-2.49;100.00;95629.94;5081702;28;20793;-74
2023/01/20 02:53:03;;;;;;;12.73;9.20;;;;;;;-2.53;100.00;95628.91;5051063;28;20519;-74
2023/01/20 02:55:33;;;;;;;12.20;9.10;;;;;;;-2.36;100.00;95628.63;5067490;28;20451;-74
2023/01/20 02:58:07;;;;;;;13.20;9.33;;;;;;;-2.53;100.00;95591.91;5053022;28;20436;-74
2023/01/20 03:00:43;;;;;;;9.70;8.70;;;;;;;-2.31;100.00;95607.13;5077195;28;20436;-74
2023/01/20 03:03:14;;;;;;;13.20;9.30;;;;;;;-2.47;100.00;95586.47;5064029;28;20436;-74
2023/01/20 03:06:04;;;;;;;12.60;9.80;;;;;;;-2.41;100.00;95634.56;5069713;28;20569;-74
2023/01/20 03:08:32;;;;;;;12.27;9.40;;;;;;;-2.85;100.00;95581.84;5069674;28;20424;-74
2023/01/20 03:11:04;;;;;;;13.97;9.13;;;;;;;-2.60;100.00;95620.63;5069725;28;20940;-74
2023/01/20 03:13:45;;;;;;;13.77;8.53;;;;;;;-2.87;100.00;95581.31;5070042;28;20530;-74
2023/01/20 03:16:16;;;;;;;11.07;9.03;;;;;;;-2.48;100.00;95633.28;5053763;28;21083;-74
2023/01/20 03:18:43;;;;;;;13.70;9.10;;;;;;;-2.64;100.00;95627.38;5069366;28;20893;-75
2023/01/20 03:21:12;;;;;;;11.87;9.50;;;;;;;-2.81;100.00;95612.09;5069486;28;20436;-74
2023/01/20 03:23:43;;;;;;;11.23;9.83;;;;;;;-2.74;100.00;95628.13;5070740;28;20429;-74
2023/01/20 03:26:12;;;;;;;14.20;10.60;;;;;;;-2.83;100.00;95608.22;5079188;28;20463;-74
2023/01/20 03:28:43;;;;;;;12.87;10.00;;;;;;;-2.90;100.00;95611.06;5060875;28;20440;-74
2023/01/20 03:31:19;;;;;;;12.47;10.73;;;;;;;-2.68;100.00;95641.81;5053119;28;20471;-74
2023/01/20 03:33:49;;;;;;;10.57;9.47;;;;;;;-2.69;100.00;95637.69;5073872;28;20518;-74
2023/01/20 03:36:17;;;;;;;14.07;10.93;;;;;;;-2.59;100.00;95635.13;5053135;28;20473;-74
2023/01/20 03:38:45;;;;;;;15.80;12.10;;;;;;;-2.75;100.00;95630.97;5068505;28;20467;-74
2023/01/20 03:41:23;;;;;;;16.07;12.13;;;;;;;-2.63;100.00;95652.19;5056606;28;20435;-74
2023/01/20 03:43:50;;;;;;;23.63;14.50;;;;;;;-2.62;100.00;95651.16;5073116;28;20420;-74
2023/01/20 03:46:31;;;;;;;19.10;13.80;;;;;;;-2.69;100.00;95655.81;5072865;28;20459;-74
2023/01/20 03:49:11;;;;;;;21.53;13.90;;;;;;;-2.72;100.00;95657.09;5073067;28;20451;-74
2023/01/20 03:51:54;;;;;;;28.30;15.30;;;;;;;-2.99;100.00;95631.47;5072965;28;20442;-74
2023/01/20 03:54:29;;;;;;;22.73;16.30;;;;;;;-2.71;100.00;95661.22;5072930;28;20454;-74
2023/01/20 03:57:05;;;;;;;24.13;16.20;;;;;;;-2.77;100.00;95657.09;5074153;28;20562;-74
2023/01/20 03:59:36;;;;;;;21.93;16.30;;;;;;;-2.91;100.00;95634.59;5074175;28;20419;-74
2023/01/20 04:02:06;;;;;;;23.63;16.40;;;;;;;-2.83;100.00;95644.41;5074086;28;20523;-74
2023/01/20 04:04:37;;;;;;;19.63;14.93;;;;;;;-2.91;100.00;95627.63;5072698;28;20451;-74
2023/01/20 04:07:10;;;;;;;27.20;16.27;;;;;;;-2.52;100.00;95658.16;5072542;28;20453;-74
2023/01/20 04:09:42;;;;;;;19.47;14.30;;;;;;;-2.59;100.00;95662.78;5073615;28;20440;-73
2023/01/20 04:12:09;;;;;;;22.60;15.20;;;;;;;-2.84;100.00;95642.88;5075498;28;20540;-73
2023/01/20 04:14:36;;;;;;;17.37;13.40;;;;;;;-2.71;100.00;95671.59;5070684;28;20443;-73
2023/01/20 04:17:03;;;;;;;22.97;16.10;;;;;;;-2.95;100.00;95636.13;5072415;28;20559;-73
2023/01/20 04:19:30;;;;;;;27.10;16.87;;;;;;;-2.81;100.00;95668.19;5072488;28;20463;-73
2023/01/20 04:21:57;;;;;;;18.33;14.77;;;;;;;-2.70;100.00;95678.31;5055801;28;20539;-73
2023/01/20 04:24:36;;;;;;;19.90;14.10;;;;;;;-2.69;100.00;95677.25;5073428;28;20443;-74
2023/01/20 04:27:03;;;;;;;18.23;13.30;;;;;;;-2.73;100.00;95676.25;5072265;28;20460;-74
2023/01/20 04:29:29;;;;;;;22.43;17.23;;;;;;;-2.64;100.00;95691.25;5072135;28;20433;-74
2023/01/20 04:32:01;;;;;;;22.70;16.60;;;;;;;-2.63;100.00;95693.59;5072253;28;20487;-74
2023/01/20 04:34:28;;;;;;;26.57;15.70;;;;;;;-2.70;100.00;95687.88;5055526;28;20436;-74
2023/01/20 04:36:55;;;;;;;21.37;16.90;;;;;;;-2.64;100.00;95694.63;5072222;28;20459;-74
2023/01/20 04:39:21;;;;;;;23.70;15.93;;;;;;;-2.81;100.00;95665.63;5050256;28;20443;-74
2023/01/20 04:41:48;;;;;;;21.10;15.80;;;;;;;-2.77;100.00;95675.22;5064172;28;20440;-74
2023/01/20 04:44:15;;;;;;;23.13;14.73;;;;;;;-2.75;100.00;95669.78;5076156;28;20450;-74
2023/01/20 04:46:41;;;;;;;23.00;16.30;;;;;;;-2.87;100.00;95661.50;5068075;28;20519;-74
2023/01/20 04:49:11;;;;;;;25.90;14.90;;;;;;;-2.85;100.00;95659.41;5070825;28;20456;-74
2023/01/20 04:51:38;;;;;;;23.07;15.30;;;;;;;-2.77;100.00;95677.03;5052126;28;20444;-74
2023/01/20 04:54:04;;;;;;;19.50;15.10;;;;;;;-2.79;100.00;95661.75;5071922;28;20424;-74
2023/01/20 04:56:31;;;;;;;18.40;15.80;;;;;;;-2.66;100.00;95688.94;5073319;28;20460;-74
2023/01/20 04:58:58;;;;;;;20.53;15.73;;;;;;;-2.52;100.00;95710.66;5073123;28;20464;-74
2023/01/20 05:01:24;;;;;;;21.73;15.80;;;;;;;-2.59;100.00;95710.13;5073345;28;20435;-74
2023/01/20 05:03:51;;;;;;;20.23;13.33;;;;;;;-2.64;100.00;95714.53;5076518;28;20404;-74
2023/01/20 05:06:18;;;;;;;24.67;16.40;;;;;;;-2.55;100.00;95708.59;5098969;28;20463;-74
2023/01/20 05:08:44;;;;;;;32.83;16.33;;;;;;;-2.76;100.00;95668.22;5098442;28;20413;-74
2023/01/20 05:11:11;;;;;;;26.87;15.57;;;;;;;-2.59;100.00;95714.53;5095998;28;20419;-74
2023/01/20 05:13:39;;;;;;;27.23;16.77;;;;;;;-2.68;100.00;95707.28;5071766;28;20464;-74
2023/01/20 05:16:07;;;;;;;19.33;16.27;;;;;;;-2.75;100.00;95698.22;5075207;28;20456;-74
2023/01/20 05:18:34;;;;;;;25.43;18.10;;;;;;;-2.82;100.00;95690.69;5072899;28;20531;-74
2023/01/20 05:21:02;;;;;;;28.47;18.90;;;;;;;-2.65;100.00;95725.94;5071247;28;20817;-75
2023/01/20 05:23:29;;;;;;;22.97;16.17;;;;;;;-2.58;100.00;95732.38;5080170;28;20526;-75
2023/01/20 05:25:56;;;;;;;25.50;17.40;;;;;;;-2.61;100.00;95708.84;5079407;28;20505;-75
2023/01/20 05:28:23;;;;;;;29.83;18.83;;;;;;;-2.54;100.00;95717.88;5085851;28;20861;-75
2023/01/20 05:30:50;;;;;;;24.90;18.00;;;;;;;-2.76;100.00;95705.22;5073448;28;20800;-75
2023/01/20 05:33:17;;;;;;;29.37;18.63;;;;;;;-2.79;100.00;95708.31;5074314;28;20504;-74
2023/01/20 05:35:43;;;;;;;25.47;18.50;;;;;;;-2.60;100.00;95720.75;5052650;28;20545;-74
2023/01/20 05:38:10;;;;;;;24.80;17.43;;;;;;;-2.72;100.00;95708.84;5051321;28;20832;-74
2023/01/20 05:40:37;;;;;;;28.53;16.13;;;;;;;-2.69;100.00;95712.72;5077931;28;20471;-74
2023/01/20 05:43:04;;;;;;;24.53;17.33;;;;;;;-2.44;100.00;95754.13;5060511;28;20432;-74
2023/01/20 05:45:31;;;;;;;29.50;18.20;;;;;;;-2.64;100.00;95730.06;5081662;28;20440;-74
2023/01/20 05:47:58;;;;;;;24.07;18.37;;;;;;;-2.52;100.00;95756.47;5050726;28;20532;-74
2023/01/20 05:50:26;;;;;;;26.80;18.00;;;;;;;-2.36;100.00;95762.44;5050801;28;21044;-74
2023/01/20 05:52:53;;;;;;;21.73;17.30;;;;;;;-2.86;100.00;95715.53;5061018;28;20543;-74
2023/01/20 05:55:20;;;;;;;27.37;20.10;;;;;;;-2.77;100.00;95723.56;5057829;28;20457;-74
2023/01/20 05:57:47;;;;;;;28.80;18.07;;;;;;;-2.76;100.00;95732.88;5053213;28;20503;-74
2023/01/20 06:00:14;;;;;;;26.10;17.33;;;;;;;-2.88;100.00;95720.19;5051173;28;20442;-74
2023/01/20 06:02:40;;;;;;;24.13;17.00;;;;;;;-2.74;100.00;95741.16;5050845;28;20440;-73
2023/01/20 06:05:10;;;;;;;27.40;19.00;;;;;;;-2.75;100.00;95737.03;5069642;28;20436;-74
2023/01/20 06:07:37;;;;;;;25.33;17.97;;;;;;;-2.65;100.00;95756.97;5070906;28;20454;-74
2023/01/20 06:10:04;;;;;;;31.90;18.10;;;;;;;-2.40;100.00;95770.72;5070604;28;20591;-74
2023/01/20 06:12:33;;;;;;;23.07;18.07;;;;;;;-2.41;100.00;95784.66;5071699;28;20539;-74
2023/01/20 06:15:00;;;;;;;26.10;18.07;;;;;;;-2.33;100.00;95754.16;5085182;28;20424;-74
2023/01/20 06:17:26;;;;;;;26.70;20.00;;;;;;;-2.25;100.00;95777.72;5053238;28;20503;-74
2023/01/20 06:19:53;;;;;;;26.53;20.47;;;;;;;-2.36;100.00;95783.91;5075767;28;20965;-74
2023/01/20 06:22:20;;;;;;;25.77;16.40;;;;;;;-2.30;100.00;95777.69;5066741;28;20833;-74
2023/01/20 06:24:46;;;;;;;30.83;20.10;;;;;;;-2.29;100.00;95788.81;5070102;28;20576;-74
2023/01/20 06:27:13;;;;;;;30.07;22.30;;;;;;;-2.23;100.00;95780.03;5071325;28;20486;-74
2023/01/20 06:29:40;;;;;;;31.80;21.40;;;;;;;-2.38;100.00;95765.28;5076263;28;20882;-74
2023/01/20 06:32:06;;;;;;;27.53;18.80;;;;;;;-2.34;100.00;95776.66;5064052;28;20476;-74
2023/01/20 06:34:33;;;;;;;27.47;19.37;;;;;;;-2.32;100.00;95784.94;5070664;28;20519;-74
2023/01/20 06:37:01;;;;;;;29.03;19.53;;;;;;;-2.50;100.00;95773.28;5069630;28;20558;-74
2023/01/20 06:39:30;;;;;;;28.90;18.10;;;;;;;-2.41;100.00;95805.38;5077291;28;20808;-74
2023/01/20 06:41:58;;;;;;;26.90;18.87;;;;;;;-2.56;100.00;95804.56;5050077;28;20875;-74
2023/01/20 06:44:27;;;;;;;27.10;17.60;;;;;;;-2.44;100.00;95820.66;5053055;28;20428;-74
2023/01/20 06:46:56;;;;;;;26.27;18.10;;;;;;;-2.59;100.00;95795.50;5069589;28;20483;-74
2023/01/20 06:49:25;;;;;;;24.40;18.17;;;;;;;-2.71;100.00;95782.81;5070951;28;20648;-74
2023/01/20 06:51:52;;;;;;;25.70;17.00;;;;;;;-2.74;100.00;95785.91;5069506;28;20462;-74
2023/01/20 06:54:18;;;;;;;26.77;17.97;;;;;;;-2.55;100.00;95819.06;5053217;28;20439;-74
2023/01/20 06:56:45;;;;;;;29.37;19.07;;;;;;;-2.76;100.00;95802.72;5052857;28;20479;-74
2023/01/20 06:59:12;;;;;;;25.27;17.07;;;;;;;-2.54;100.00;95820.59;5070786;28;20902;-74
2023/01/20 07:01:39;;;;;;;31.60;20.27;;;;;;;-2.59;100.00;95823.97;5069377;28;20819;-74
2023/01/20 07:04:07;;;;;;;20.67;17.33;;;;;;;-2.75;100.00;95797.28;5070747;28;20460;-74
2023/01/20 07:06:38;;;;;;;23.57;18.57;;;;;;;-2.57;100.00;95847.78;5069383;28;20547;-74
2023/01/20 07:09:08;;;;;;;27.57;19.00;;;;;;;-2.57;100.00;95850.38;5072900;28;20853;-74
2023/01/20 07:11:38;;;;;;;24.77;17.10;;;;;;;-2.74;100.00;95818.75;5083714;28;20774;-74
2023/01/20 07:14:05;;;;;;;33.27;20.00;;;;;;;-2.57;100.00;95845.19;5055494;28;20521;-74
2023/01/20 07:16:33;;;;;;;31.57;21.67;;;;;;;-2.54;100.00;95855.03;5075589;28;20452;-74
2023/01/20 07:19:00;;;;;;;31.23;21.87;;;;;;;-2.79;100.00;95816.16;5075563;28;20778;-74
2023/01/20 07:21:27;;;;;;;32.50;21.00;;;;;;;-2.74;100.00;95823.94;5074572;28;20428;-74
2023/01/20 07:23:53;;;;;;;34.30;23.13;;;;;;;-2.69;100.00;95837.66;5073411;28;20452;-74
2023/01/20 07:26:23;;;;;;;33.30;21.10;;;;;;;-2.85;100.00;95809.41;5074384;28;20467;-74
2023/01/20 07:28:50;;;;;;;29.17;21.07;;;;;;;-2.49;100.00;95855.06;5053118;28;20990;-74
2023/01/20 07:31:27;;;;;;;31.67;19.20;;;;;;;-2.55;100.00;95866.41;5072246;28;20432;-74
2023/01/20 07:33:55;;;;;;;27.60;20.17;;;;;;;-2.55;100.00;95856.06;5073309;28;20454;-74
2023/01/20 07:36:22;;;;;;;28.23;20.20;;;;;;;-2.59;100.00;95849.06;5074349;28;20462;-74
2023/01/20 07:38:49;;;;;;;29.17;22.10;;;;;;;-2.51;100.00;95869.28;5072743;28;20459;-74
2023/01/20 07:41:18;;;;;;;34.90;21.77;;;;;;;-2.44;100.00;95873.19;5072889;28;20444;-74
2023/01/20 07:43:48;;;;;;;30.00;19.33;;;;;;;-2.49;100.00;95873.16;5074063;28;20897;-74
2023/01/20 07:46:15;;;;;;;29.07;20.80;;;;;;;-2.55;100.00;95853.47;5072868;28;20532;-74
2023/01/20 07:48:42;;;;;;;30.37;21.60;;;;;;;-2.42;100.00;95878.09;5056313;28;20458;-74
2023/01/20 07:51:12;;;;;;;33.20;21.00;;;;;;;-2.38;100.00;95892.88;5072693;28;20444;-74
2023/01/20 07:53:41;;;;;;;32.93;22.40;;;;;;;-2.42;100.00;95867.75;5055294;28;20796;-74
2023/01/20 07:56:15;;;;;;;30.60;20.47;;;;;;;-2.40;100.00;95889.78;5056611;28;20470;-74
2023/01/20 07:58:46;;;;;;;34.20;22.77;;;;;;;-2.55;100.00;95850.88;5072570;28;20467;-74
2023/01/20 08:01:24;;;;;;;29.83;21.50;;;;;;;-2.30;100.00;95894.19;5084340;28;20421;-74
2023/01/20 08:03:51;;;;;;;30.43;21.27;;;;;;;-2.28;100.00;95897.28;5052631;28;20450;-73
2023/01/20 08:06:21;;;;;;;28.23;20.13;;;;;;;-2.19;100.00;95897.56;5079331;28;21012;-74
2023/01/20 08:08:48;;;;;;;33.43;20.77;;;;;;;-2.23;100.00;95907.66;5060123;28;20432;-73
2023/01/20 08:11:16;;;;;;;27.77;20.03;;;;;;;-2.36;100.00;95900.38;5073782;28;20767;-73
2023/01/20 08:13:43;;;;;;;29.83;20.63;;;;;;;-2.35;100.00;95883.03;5073858;28;20446;-74
2023/01/20 08:16:12;;;;;;;29.57;21.17;;;;;;;-2.11;100.00;95917.81;5076054;28;20888;-74
2023/01/20 08:18:39;;;;;;;34.57;20.07;;;;;;;-2.25;100.00;95907.16;5055592;28;20471;-74
2023/01/20 08:21:14;;;;;;;35.40;21.30;;;;;;;-2.28;100.00;95906.88;5072215;28;20466;-74
2023/01/20 08:23:41;;;;;;;30.03;21.60;;;;;;;-2.10;100.00;95942.66;5072425;28;20928;-74
2023/01/20 08:26:08;;;;;;;30.97;19.87;;;;;;;-2.16;100.00;95928.13;5073168;28;20467;-74
2023/01/20 08:28:35;;;;;;;28.00;19.50;;;;;;;-1.87;100.00;95947.38;5072176;28;20863;-74
2023/01/20 08:31:08;;;;;;;27.67;20.30;;;;;;;-2.13;100.00;95914.69;5071996;28;20989;-74
2023/01/20 08:33:36;;;;;;;28.83;20.13;;;;;;;-1.99;100.00;95933.88;5072081;28;20467;-74
2023/01/20 08:36:05;;;;;;;33.90;20.73;;;;;;;-1.81;100.00;95951.53;5072124;28;20853;-74
2023/01/20 08:38:32;;;;;;;32.90;21.07;;;;;;;-1.96;100.00;95928.19;5071781;28;20490;-74
2023/01/20 08:40:59;;;;;;;29.60;18.87;;;;;;;-1.97;100.00;95929.22;5071956;28;20478;-74
2023/01/20 08:43:26;;;;;;;28.47;19.13;;;;;;;-1.71;100.00;95961.13;5067761;28;20794;-74
2023/01/20 08:46:05;;;;;;;32.20;18.87;;;;;;;-1.84;100.00;95967.59;5054037;28;20514;-74
2023/01/20 08:48:33;;;;;;;23.97;18.80;;;;;;;-1.86;100.00;95932.63;5053350;28;20421;-74
2023/01/20 08:51:23;;;;;;;28.97;18.90;;;;;;;-1.67;100.00;95969.16;5059621;28;20547;-74
2023/01/20 08:53:50;;;;;;;28.53;20.80;;;;;;;-1.59;100.00;95971.25;5073197;28;20982;-74
2023/01/20 08:56:18;;;;;;;23.83;17.60;;;;;;;-1.80;100.00;95940.13;5073175;28;20555;-74
2023/01/20 08:58:45;;;;;;;26.97;17.40;;;;;;;-1.56;100.00;95955.97;5071567;28;20757;-74
2023/01/20 09:01:16;;;;;;;25.77;17.83;;;;;;;-1.27;100.00;95979.56;5072133;28;20428;-74
2023/01/20 09:03:43;;;;;;;21.80;16.60;;;;;;;-1.32;100.00;95986.59;5071995;28;20477;-73
2023/01/20 09:06:30;;;;;;;27.07;18.00;;;;;;;-1.55;100.00;95957.53;5084506;28;20500;-73
2023/01/20 09:08:57;;;;;;;27.33;17.67;;;;;;;-1.53;100.00;95976.19;5078283;28;20459;-74
2023/01/20 09:11:26;;;;;;;23.63;17.40;;;;;;;-1.65;100.00;95957.50;5076302;28;21020;-74
2023/01/20 09:13:53;;;;;;;22.27;16.47;;;;;;;-1.40;100.00;95981.91;5073175;28;20424;-74
2023/01/20 09:16:20;;;;;;;22.93;14.43;;;;;;;-1.46;100.00;95996.69;5074263;28;20460;-74
2023/01/20 09:18:47;;;;;;;28.57;17.40;;;;;;;-1.30;100.00;96000.84;5072835;28;20459;-74
2023/01/20 09:21:13;;;;;;;23.83;14.53;;;;;;;-1.41;100.00;95998.50;5071464;28;20447;-74
2023/01/20 09:23:41;;;;;;;21.33;14.43;;;;;;;-1.33;100.00;95998.00;5071552;28;20905;-74
2023/01/20 09:26:08;;;;;;;24.60;15.73;;;;;;;-1.09;100.00;95999.00;5072651;28;20471;-74
2023/01/20 09:28:35;;;;;;;21.77;14.90;;;;;;;-1.35;100.00;95979.31;5055032;28;20474;-74
2023/01/20 09:31:07;;;;;;;30.47;16.13;;;;;;;-1.36;100.00;95983.72;5071133;28;20523;-74
2023/01/20 09:33:37;;;;;;;32.73;16.30;;;;;;;-0.90;100.00;96020.03;5055374;28;20436;-74
2023/01/20 09:36:09;;;;;;;19.60;14.77;;;;;;;-0.93;100.00;96028.34;5071678;28;20517;-74
2023/01/20 09:44:20;;;;;;;30.20;25.67;;;;;;;-0.76;100.00;96023.66;5071441;28;20464;-74
2023/01/20 09:47:21;;;;;;;20.03;13.90;;;;;;;-0.99;100.00;96030.16;5071257;28;20456;-74
2023/01/20 09:53:04;;;;;;;18.27;12.10;;;;;;;-0.45;100.00;96036.59;5072559;28;20456;-74
2023/01/20 09:55:39;;;;;;;18.33;13.00;;;;;;;-0.68;100.00;96035.31;5072486;28;20800;-74
2023/01/20 09:58:15;;;;;;;21.93;14.03;;;;;;;-0.62;100.00;96035.06;5071681;28;20476;-73
2023/01/20 10:00:48;;;;;;;17.87;13.60;;;;;;;-0.36;100.00;96045.41;5071093;28;20444;-74
2023/01/20 10:03:24;;;;;;;17.53;11.93;;;;;;;-0.48;100.00;96024.13;5071575;28;20796;-74
2023/01/20 10:05:53;;;;;;;16.17;11.77;;;;;;;-0.38;100.00;96017.09;5071083;28;20459;-74
2023/01/20 10:08:27;;;;;;;15.00;9.90;;;;;;;-0.46;100.00;96046.19;5050932;28;20520;-74
2023/01/20 10:11:01;;;;;;;17.03;11.77;;;;;;;-0.53;100.00;96031.94;5063044;28;20527;-74
2023/01/20 10:13:32;;;;;;;18.20;11.70;;;;;;;-0.78;100.00;95996.41;5079709;28;20849;-74
2023/01/20 10:16:05;;;;;;;15.90;11.40;;;;;;;-0.49;100.00;96032.97;5069172;28;20469;-74
2023/01/20 10:18:55;;;;;;;15.17;9.80;;;;;;;-0.69;100.00;96025.97;5071058;28;20460;-74
2023/01/20 10:21:35;;;;;;;13.17;9.60;;;;;;;-0.64;100.00;96013.00;5075753;28;20481;-74
2023/01/20 10:24:29;;;;;;;17.87;10.93;;;;;;;-0.52;100.00;96049.84;5064600;28;20437;-74
2023/01/20 10:27:03;;;;;;;12.60;9.57;;;;;;;-0.64;100.00;96039.75;5050720;28;20519;-74
2023/01/20 10:29:37;;;;;;;14.17;10.50;;;;;;;-0.64;100.00;96044.16;5050928;28;21048;-74
2023/01/20 10:32:23;;;;;;;12.80;9.00;;;;;;;-0.69;100.00;96044.13;5063340;28;20433;-73
2023/01/20 10:34:53;;;;;;;18.10;10.73;;;;;;;-0.82;100.00;96029.88;5072350;28;20913;-74
2023/01/20 10:37:22;;;;;;;14.70;9.40;;;;;;;-0.72;100.00;96049.84;5070769;28;20960;-74
2023/01/20 10:40:00;;;;;;;13.37;10.10;;;;;;;-0.84;100.00;96039.75;5071557;28;20447;-74
2023/01/20 10:42:27;;;;;;;14.90;11.40;;;;;;;-0.76;100.00;96043.66;5089928;28;20430;-74
2023/01/20 10:44:54;;;;;;;17.30;10.80;;;;;;;-0.88;100.00;96030.16;5087860;28;20428;-74
2023/01/20 10:47:40;;;;;;;19.07;8.73;;;;;;;-0.64;100.00;96060.50;5096538;28;20444;-74
2023/01/20 10:50:15;;;;;;;15.33;9.73;;;;;;;-0.69;100.00;96060.50;5083798;28;20448;-74
2023/01/20 10:53:02;;;;;;;14.97;10.30;;;;;;;-0.61;100.00;96057.38;5072553;28;20451;-74
2023/01/20 10:55:41;;;;;;;29.90;10.17;;;;;;;-0.80;100.00;96053.78;5070885;28;20438;-74
2023/01/20 10:58:20;;;;;;;15.43;8.87;;;;;;;-0.90;100.00;96027.81;5071782;28;20459;-74
2023/01/20 11:00:48;;;;;;;12.90;9.10;;;;;;;-0.56;100.00;96061.78;5070424;28;20416;-74
2023/01/20 11:03:19;;;;;;;13.50;9.83;;;;;;;-0.85;100.00;96035.59;5071466;28;20532;-74
2023/01/20 11:05:47;;;;;;;13.70;10.20;;;;;;;-0.78;100.00;96064.66;5070105;28;20857;-74
2023/01/20 11:08:26;;;;;;;14.70;9.83;;;;;;;-0.96;100.00;96050.38;5071565;28;20432;-74
2023/01/20 11:10:58;;;;;;;14.77;10.43;;;;;;;-0.84;100.00;96065.69;5071500;28;20511;-74
2023/01/20 11:13:24;;;;;;;15.73;8.40;;;;;;;-0.76;100.00;96060.00;5075619;28;20463;-74
2023/01/20 11:16:01;;;;;;;12.93;9.30;;;;;;;-0.67;100.00;96066.22;5065400;28;20815;-74
2023/01/20 11:18:30;;;;;;;11.50;8.33;;;;;;;-0.66;100.00;96062.59;5040834;28;20509;-74
2023/01/20 11:21:02;;;;;;;14.77;8.73;;;;;;;-0.63;100.00;96066.47;5070000;28;20428;-74
2023/01/20 11:23:35;;;;;;;12.37;7.83;;;;;;;-0.75;100.00;96069.31;5070279;28;20424;-73
2023/01/20 11:26:08;;;;;;;10.10;7.90;;;;;;;-0.77;100.00;96063.63;5074016;28;20487;-73
2023/01/20 11:29:04;;;;;;;14.73;8.90;;;;;;;-0.77;100.00;96066.22;5079629;28;20528;-73
2023/01/20 11:31:38;;;;;;;11.77;6.47;;;;;;;-0.88;100.00;96066.47;5041007;28;20471;-73
2023/01/20 11:34:25;;;;;;;14.50;7.50;;;;;;;-1.00;100.00;96062.31;5069989;28;20447;-73
2023/01/20 11:37:04;;;;;;;14.20;7.20;;;;;;;-0.82;100.00;96062.81;5069946;28;20432;-73